Maryland AWOS List, Phone Numbers

USA |  
| Search AWOS

Rocky Mountain States: Montana | Wyoming | Colorado | New Mexico

Complete weather reports: Maryland

Legend: KFNL = METAR available Follow your local AWOS on AV Mobile = METAR available on AV Mobile
Station Maryland Location Frequency Phone
KAPGFAA ID APG, KAPG 230058Z AUTO VRB05KT 10SM CLR 01/M15 A3043 Follow KAPG on AV Mobile Phillips Army Air Field / Aberdeen
K61WICAO ID K61W Annapolis Coast Guard Station
KNAKICAO ID KNAK, KNAK 230554Z AUTO 04004KT 10SM CLR 01/M12 A3050 RMK AO2 SLP330 T00111117 10067 20011 53008 Follow KNAK on AV Mobile ANNAPOLIS US NAVAL ACADEMY
KLWXICAO ID KLWX Baltimore / DC Nexrad
KDMHICAO ID KDMH, KDMH 230554Z AUTO 01/M17 A3050 RMK AO1 SLP327 T00061167 10061 20006 51011 Follow KDMH on AV Mobile BALTIMORE DOWNTOWN
KMTNFAA ID MTN, AWOS-3PT, KMTN 230557Z AUTO 34003KT 10SM CLR M01/M13 A3053 Follow KMTN on AV Mobile Baltimore / Martin 124.925 410-682-8848
KBWIFAA ID BWI, ASOS, KBWI 230554Z 03004KT 10SM CLR M01/M16 A3050 Follow KBWI on AV Mobile BALTIMORE-WASHINGTON INTERNATIONAL 410-691-1278
4MDFAA ID 4MD, Belfort PIER 7
KCGEFAA ID CGE, AWOS-3, KCGE 230600Z AUTO 01008KT 10SM CLR M00/M16 A3050 RMK A01 Follow KCGE on AV Mobile CAMBRIDGE 120.675 410-228-7559
KADWFAA ID ADW, KADW 230558Z AUTO 06004KT 10SM CLR M02/M14 A3048 RMK AO2 SLP331 T10201137 10040 21022 52008 Follow KADW on AV Mobile Camp Springs / Andrews Air Force Base
W32FAA ID W32, Belfort WASHINGTON EXECUTIVE/HYDE FIELD
KCGSFAA ID CGS, AWOS-3, KCGS 230601Z AUTO 00000KT 10SM CLR M01/M13 A3051 RMK AO1 Follow KCGS on AV Mobile COLLEGE PARK 121.225 301-864-5497
K66WICAO ID K66W Cove Point Coast Guard Light Station
KCBEFAA ID CBE, AWOS-3, KCBE 230602Z AUTO 32003KT 10SM CLR M01/M15 A3054 Follow KCBE on AV Mobile Cumberland, Greater Cumberland Regional Airport 128.625 304-738-0451
KESNFAA ID ESN, AWOS-3, KESN 230600Z AUTO 05006KT 10SM CLR M01/M15 A3053 Follow KESN on AV Mobile Easton / Newman Field 124.475 410-822-2817
KFMEFAA ID FME, AWOS-3, KFME 230600Z AUTO 00000KT 10SM CLR M03/M12 A3053 RMK AO1 Follow KFME on AV Mobile Fort Meade / Tipton 123.925
KJWXICAO ID KJWX Fort Ritchie
KFDKFAA ID FDK, AWOS-3, KFDK 230555Z AUTO 00000KT 10SM CLR M02/M07 A3053 Follow KFDK on AV Mobile Frederick, Frederick Municipal Airport 124.875 301-600-1457
KGAIFAA ID GAI, AWOS-3, KGAI 230555Z AUTO 00000KT 10SM CLR M02/M17 A3053 RMK AO1 10030 21030 52010 Follow KGAI on AV Mobile GAITHERSBURG 128.275 301-977-2971
KHGRFAA ID HGR, ASOS, KHGR 230553Z AUTO 08003KT 10SM CLR M02/M16 A3049 RMK AO2 SLP340 T10171156 10028 21022 52009 Follow KHGR on AV Mobile HAGERSTOWN REGIONAL AIRPORT 126.375 301-745-3497
K2W6FAA ID 2W6, AWOS-3, K2W6 230601Z AUTO 05004KT 10SM CLR 00/M10 A3050 RMK AO1 Follow K2W6 on AV Mobile LEONARDTOWN 119.575 301-373-6514
K2G4FAA ID 2G4, AWOS-3, K2G4 230600Z AUTO 35003KT 10SM CLR M07/M15 A3037 RMK AO1 Follow K2G4 on AV Mobile OAKLAND 120.125 301-746-8443
KW30ICAO ID KW30 Ocean City
KN80ICAO ID KN80 Ocean City, Ocean City Municipal Airport
KOXBFAA ID OXB, ASOS, KOXB 230553Z AUTO 01011G18KT 10SM CLR 00/M13 A3048 RMK AO2 SLP321 T00001128 10033 20000 51013 Follow KOXB on AV Mobile OCEAN CITY MUNICIPAL AIRPORT 119.025 410-213-1530
KNHKFAA ID NHK, KNHK 230552Z AUTO 05015KT 10SM CLR 00/M12 A3049 RMK AO2 SLP324 T00001122 10056 20000 52012 $ Follow KNHK on AV Mobile NAS PATUXENT RIVER MD
KSBYFAA ID SBY, ASOS, KSBY 230554Z AUTO 02008KT 10SM CLR M02/M14 A3048 Follow KSBY on AV Mobile SALISBURY-WICOMICO CTY REG 118.325 410-341-0868
KNUIFAA ID NUI, KNUI 230553Z AUTO 04009G15KT 10SM CLR 01/M12 A3049 RMK AO2 SLP324 T00111122 10067 20011 51016 Follow KNUI on AV Mobile KNUI WEBSTER FIELD ANNEX
KW29FAA ID W29, AWOS-3, KW29 230555Z AUTO 02004KT 10SM CLR M01/M15 A3051 RMK AO2 TSNO Follow KW29 on AV Mobile STEVENSVILLE 120.575 410-643-8795
K67WICAO ID K67W Stillpond Coast Guard Station
K65WICAO ID K65W Thomas Point Coast Guard Station
KDMWFAA ID DMW, AWOS-3, KDMW 230600Z AUTO 00000KT 10SM CLR M03/M14 A3047 RMK AO2 Follow KDMW on AV Mobile WESTMINSTER 121.25 410-876-1281

Click on the AV Mobile icon AV Mobile icon by any station to follow that AWOS feed on AirportView.net Mobile.

Leaders in ADS-B Avemco Insurance Company